Terminal Aerodrome Forecast
Issued by NWS Missoula, MT

Home | Current Version | Previous Version | Text Only | Print | Product List | Glossary On
Versions: 1 2 3 4 5 6 7 8 9 10 11 12 13
000
FTUS45 KMSO 022340
TAFMSO
TAF
KMSO 022340Z 0300/0324 00000KT 2SM -SN BR OVC030
     FM030200 09020G28KT 1SM -SN BKN020 OVC030
     FM030500 10015G25KT P6SM -SHSN BKN025 OVC040
     FM030700 10012G25KT P6SM VCSH OVC040
     FM031600 10010KT P6SM SCT060=

USA.gov is the U.S. government's official web portal to all federal, state and local government web resources and services.